Time;durP1;ratioP1;P1;durP2;ratioP2;P2;SDS_P1;SDS_P2;PMS_P1;PMS_P2;Temp;Humidity;BMP_temperature;BMP_pressure;BME280_temperature;BME280_humidity;BME280_pressure;Samples;Min_cycle;Max_cycle;Signal;HPM_P1;HPM_P2
2023/12/24 00:00:14;;;;;;;8.30;5.07;;;;;;;;;;5103975;28;20074;-49
2023/12/24 00:02:41;;;;;;;14.80;5.15;;;;;;;;;;5104241;28;20016;-51
2023/12/24 00:05:08;;;;;;;6.45;4.50;;;;;;;;;;5104133;28;20048;-49
2023/12/24 00:07:34;;;;;;;10.48;5.32;;;;;;;;;;5103861;28;20035;-47
2023/12/24 00:10:01;;;;;;;9.88;5.40;;;;;;;;;;5103841;28;20031;-45
2023/12/24 00:12:27;;;;;;;9.00;6.30;;;;;;;;;;5107095;28;20201;-50
2023/12/24 00:14:54;;;;;;;17.60;9.10;;;;;;;;;;5107963;28;20320;-46
2023/12/24 00:17:21;;;;;;;13.88;7.88;;;;;;;;;;5108075;28;20097;-47
2023/12/24 00:19:47;;;;;;;11.82;7.53;;;;;;;;;;5107986;28;20040;-45
2023/12/24 00:22:14;;;;;;;10.55;6.60;;;;;;;;;;5107949;28;20032;-46
2023/12/24 00:24:41;;;;;;;13.48;6.70;;;;;;;;;;5108130;28;20028;-50
2023/12/24 00:27:08;;;;;;;10.82;7.90;;;;;;;;;;5107824;28;20023;-49
2023/12/24 00:29:36;;;;;;;16.23;10.90;;;;;;;;;;5107698;28;20044;-53
2023/12/24 00:32:02;;;;;;;21.52;12.98;;;;;;;;;;5107695;28;20057;-47
2023/12/24 00:34:29;;;;;;;24.65;14.18;;;;;;;;;;5107792;28;20031;-51
2023/12/24 00:36:55;;;;;;;20.83;12.82;;;;;;;;;;5107435;28;20069;-47
2023/12/24 00:39:22;;;;;;;18.05;10.93;;;;;;;;;;5107795;28;20044;-46
2023/12/24 00:41:48;;;;;;;17.08;10.25;;;;;;;;;;5107966;28;20012;-50
2023/12/24 00:44:15;;;;;;;17.80;10.13;;;;;;;;;;5107629;28;20023;-46
2023/12/24 00:46:41;;;;;;;13.00;9.00;;;;;;;;;;5107419;28;20130;-44
2023/12/24 00:49:08;;;;;;;16.67;8.68;;;;;;;;;;5108274;28;20208;-50
2023/12/24 00:51:35;;;;;;;12.40;8.32;;;;;;;;;;5107333;28;20318;-46
2023/12/24 00:54:01;;;;;;;15.20;7.70;;;;;;;;;;5107710;28;20031;-46
2023/12/24 00:56:28;;;;;;;12.88;7.47;;;;;;;;;;5107422;28;20016;-46
2023/12/24 00:58:54;;;;;;;14.18;8.00;;;;;;;;;;5107852;28;20028;-50
2023/12/24 01:01:21;;;;;;;12.65;7.82;;;;;;;;;;5107145;28;20043;-44
2023/12/24 01:03:48;;;;;;;15.57;7.20;;;;;;;;;;5107570;28;20239;-46
2023/12/24 01:06:14;;;;;;;15.43;8.90;;;;;;;;;;5107158;28;20020;-52
2023/12/24 01:08:41;;;;;;;17.02;8.00;;;;;;;;;;5107402;28;20137;-46
2023/12/24 01:11:07;;;;;;;13.35;8.63;;;;;;;;;;5107129;28;20020;-45
2023/12/24 01:13:34;;;;;;;12.65;8.20;;;;;;;;;;5107249;28;20090;-55
2023/12/24 01:16:01;;;;;;;19.02;8.60;;;;;;;;;;5106736;28;20048;-51
2023/12/24 01:18:28;;;;;;;18.13;9.35;;;;;;;;;;5107255;28;20200;-51
2023/12/24 01:20:56;;;;;;;14.90;9.85;;;;;;;;;;5106885;28;20064;-46
2023/12/24 01:23:23;;;;;;;16.30;9.85;;;;;;;;;;5106502;28;20047;-45
2023/12/24 01:25:50;;;;;;;11.52;8.43;;;;;;;;;;5106778;28;20023;-48
2023/12/24 01:28:16;;;;;;;11.82;8.18;;;;;;;;;;5107125;28;20087;-52
2023/12/24 01:30:43;;;;;;;16.88;8.60;;;;;;;;;;5106395;28;20041;-49
2023/12/24 01:33:09;;;;;;;18.83;8.60;;;;;;;;;;5107046;28;20026;-48
2023/12/24 01:35:37;;;;;;;17.95;9.57;;;;;;;;;;5106689;28;20027;-48
2023/12/24 01:38:04;;;;;;;17.42;9.75;;;;;;;;;;5106705;28;20087;-51
2023/12/24 01:40:31;;;;;;;15.35;9.00;;;;;;;;;;5106609;28;20264;-50
2023/12/24 01:42:57;;;;;;;14.32;8.68;;;;;;;;;;5106693;28;20300;-46
2023/12/24 01:45:24;;;;;;;21.23;10.90;;;;;;;;;;5106319;28;20320;-51
2023/12/24 01:47:50;;;;;;;18.90;12.32;;;;;;;;;;5106548;28;20066;-53
2023/12/24 01:50:17;;;;;;;16.60;11.30;;;;;;;;;;5106378;28;20020;-44
2023/12/24 01:52:44;;;;;;;20.58;11.07;;;;;;;;;;5106160;28;20034;-49
2023/12/24 01:55:11;;;;;;;17.55;10.35;;;;;;;;;;5106327;28;20026;-51
2023/12/24 01:57:37;;;;;;;17.02;10.05;;;;;;;;;;5106217;28;20028;-49
2023/12/24 02:00:04;;;;;;;13.50;9.85;;;;;;;;;;5106090;28;20020;-46
2023/12/24 02:02:31;;;;;;;16.58;8.63;;;;;;;;;;5106368;28;20032;-59
2023/12/24 02:04:58;;;;;;;13.57;8.77;;;;;;;;;;5106146;28;20016;-47
2023/12/24 02:07:25;;;;;;;13.02;9.00;;;;;;;;;;5106101;28;20101;-46
2023/12/24 02:09:52;;;;;;;14.05;8.63;;;;;;;;;;5106121;28;20028;-50
2023/12/24 02:12:19;;;;;;;16.77;8.43;;;;;;;;;;5105957;28;20073;-50
2023/12/24 02:14:45;;;;;;;13.70;8.38;;;;;;;;;;5105663;28;20046;-53
2023/12/24 02:17:12;;;;;;;12.43;8.35;;;;;;;;;;5105848;28;20125;-54
2023/12/24 02:19:39;;;;;;;13.45;7.20;;;;;;;;;;5105893;28;20079;-52
2023/12/24 02:22:05;;;;;;;11.18;7.00;;;;;;;;;;5105681;28;20047;-51
2023/12/24 02:24:32;;;;;;;12.07;7.68;;;;;;;;;;5105614;28;20087;-52
2023/12/24 02:27:06;;;;;;;15.43;8.32;;;;;;;;;;5105401;28;20027;-54
2023/12/24 02:29:35;;;;;;;15.10;8.10;;;;;;;;;;5105358;28;20107;-49
2023/12/24 02:32:04;;;;;;;13.07;8.32;;;;;;;;;;5105468;28;20028;-53
2023/12/24 02:34:32;;;;;;;18.60;8.73;;;;;;;;;;5104561;28;20253;-50
2023/12/24 02:36:58;;;;;;;15.32;8.65;;;;;;;;;;5105285;28;20080;-51
2023/12/24 02:39:25;;;;;;;21.27;10.82;;;;;;;;;;5105564;28;20246;-51
2023/12/24 02:41:51;;;;;;;22.02;10.68;;;;;;;;;;5105116;28;20039;-47
2023/12/24 02:44:18;;;;;;;20.70;10.57;;;;;;;;;;5105092;28;20016;-46
2023/12/24 02:46:44;;;;;;;21.70;10.80;;;;;;;;;;5105204;28;20012;-47
2023/12/24 02:49:11;;;;;;;19.63;10.48;;;;;;;;;;5105232;28;20027;-49
2023/12/24 02:51:38;;;;;;;15.48;10.40;;;;;;;;;;5104969;28;20028;-54
2023/12/24 02:54:04;;;;;;;25.98;11.90;;;;;;;;;;5105520;28;20034;-50
2023/12/24 02:56:36;;;;;;;23.30;14.07;;;;;;;;;;5105047;28;20019;-47
2023/12/24 02:59:03;;;;;;;17.80;11.55;;;;;;;;;;5105241;28;20333;-45
2023/12/24 03:01:30;;;;;;;19.83;11.30;;;;;;;;;;5104667;28;20035;-46
2023/12/24 03:03:57;;;;;;;17.30;10.50;;;;;;;;;;5105183;28;20024;-48
2023/12/24 03:06:24;;;;;;;16.73;9.40;;;;;;;;;;5104589;28;20028;-46
2023/12/24 03:08:51;;;;;;;16.15;8.50;;;;;;;;;;5105217;28;20031;-47
2023/12/24 03:11:17;;;;;;;14.43;8.27;;;;;;;;;;5104627;28;20043;-48
2023/12/24 03:13:44;;;;;;;14.15;8.02;;;;;;;;;;5104990;28;20028;-48
2023/12/24 03:16:10;;;;;;;17.33;7.85;;;;;;;;;;5104749;28;20050;-47
2023/12/24 03:18:37;;;;;;;11.27;6.70;;;;;;;;;;5105012;28;20035;-48
2023/12/24 03:21:05;;;;;;;14.90;7.15;;;;;;;;;;5104572;28;20083;-44
2023/12/24 03:23:31;;;;;;;16.17;6.90;;;;;;;;;;5104961;28;20028;-51
2023/12/24 03:25:58;;;;;;;9.27;6.47;;;;;;;;;;5104515;28;20016;-54
2023/12/24 03:28:24;;;;;;;13.68;7.13;;;;;;;;;;5104671;28;20047;-47
2023/12/24 03:30:51;;;;;;;11.88;6.55;;;;;;;;;;5104564;28;20023;-50
2023/12/24 03:33:17;;;;;;;12.27;7.18;;;;;;;;;;5104730;28;20083;-54
2023/12/24 03:35:44;;;;;;;11.77;6.97;;;;;;;;;;5104412;28;20016;-50
2023/12/24 03:38:11;;;;;;;14.50;7.28;;;;;;;;;;5104493;28;20030;-49
2023/12/24 03:40:37;;;;;;;19.83;9.27;;;;;;;;;;5104462;28;20049;-49
2023/12/24 03:43:04;;;;;;;13.88;9.40;;;;;;;;;;5104498;28;20028;-48
2023/12/24 03:45:32;;;;;;;15.45;9.55;;;;;;;;;;5103924;28;20024;-47
2023/12/24 03:48:00;;;;;;;16.48;9.52;;;;;;;;;;5104402;28;20034;-45
2023/12/24 03:50:27;;;;;;;16.42;10.35;;;;;;;;;;5104163;28;20118;-45
2023/12/24 03:52:54;;;;;;;16.30;8.93;;;;;;;;;;5104049;28;20059;-48
2023/12/24 03:55:20;;;;;;;16.40;8.15;;;;;;;;;;5104168;28;20026;-50
2023/12/24 03:57:47;;;;;;;13.25;7.78;;;;;;;;;;5104366;28;20020;-48
2023/12/24 04:00:14;;;;;;;12.32;7.60;;;;;;;;;;5104088;28;20182;-49
2023/12/24 04:02:41;;;;;;;16.73;9.57;;;;;;;;;;5104267;28;20027;-50
2023/12/24 04:05:07;;;;;;;12.98;8.52;;;;;;;;;;5104055;28;20023;-50
2023/12/24 04:07:34;;;;;;;15.45;9.52;;;;;;;;;;5103820;28;20053;-51
2023/12/24 04:10:00;;;;;;;12.23;7.57;;;;;;;;;;5104039;28;20071;-51
2023/12/24 04:12:27;;;;;;;13.63;7.35;;;;;;;;;;5104050;28;20065;-47
2023/12/24 04:14:53;;;;;;;10.52;5.70;;;;;;;;;;5103780;28;20020;-56
2023/12/24 04:17:20;;;;;;;10.95;5.85;;;;;;;;;;5104099;28;20047;-50
2023/12/24 04:19:47;;;;;;;9.25;5.47;;;;;;;;;;5104158;28;20012;-45
2023/12/24 04:22:13;;;;;;;7.72;5.20;;;;;;;;;;5103817;28;20081;-51
2023/12/24 04:24:40;;;;;;;10.85;5.45;;;;;;;;;;5103975;28;20028;-51
2023/12/24 04:27:06;;;;;;;9.52;5.05;;;;;;;;;;5103834;28;20028;-46
2023/12/24 04:29:33;;;;;;;10.98;5.10;;;;;;;;;;5103555;28;20055;-45
2023/12/24 04:31:59;;;;;;;8.82;4.88;;;;;;;;;;5103891;28;20019;-45
2023/12/24 04:34:26;;;;;;;7.90;4.60;;;;;;;;;;5103765;28;20241;-46
2023/12/24 04:36:54;;;;;;;9.07;4.57;;;;;;;;;;5103600;28;20034;-45
2023/12/24 04:39:21;;;;;;;7.45;4.30;;;;;;;;;;5103689;28;20020;-49
2023/12/24 04:41:47;;;;;;;8.70;4.40;;;;;;;;;;5103738;28;20055;-54
2023/12/24 04:44:15;;;;;;;8.45;4.85;;;;;;;;;;5103518;28;20087;-48
2023/12/24 04:46:43;;;;;;;8.25;5.18;;;;;;;;;;5103506;28;20024;-51
2023/12/24 04:49:09;;;;;;;9.15;5.25;;;;;;;;;;5103762;28;20052;-51
2023/12/24 04:51:36;;;;;;;10.57;5.00;;;;;;;;;;5103523;28;20031;-50
2023/12/24 04:54:03;;;;;;;8.95;4.90;;;;;;;;;;5103868;28;20244;-48
2023/12/24 04:56:31;;;;;;;10.63;5.40;;;;;;;;;;5103550;28;20012;-48
2023/12/24 04:58:58;;;;;;;8.00;5.43;;;;;;;;;;5107334;28;20330;-49
2023/12/24 05:01:24;;;;;;;12.63;6.68;;;;;;;;;;5107200;28;20356;-47
2023/12/24 05:03:51;;;;;;;9.27;7.97;;;;;;;;;;5107677;28;20087;-48
2023/12/24 05:06:18;;;;;;;12.93;8.95;;;;;;;;;;5107253;28;20250;-46
2023/12/24 05:08:44;;;;;;;11.27;8.55;;;;;;;;;;5107398;28;20023;-47
2023/12/24 05:11:11;;;;;;;11.77;8.88;;;;;;;;;;5106964;28;20324;-45
2023/12/24 05:13:37;;;;;;;11.10;8.68;;;;;;;;;;5107322;28;20035;-49
2023/12/24 05:16:05;;;;;;;12.90;8.75;;;;;;;;;;5106853;28;20020;-45
2023/12/24 05:18:33;;;;;;;12.43;7.80;;;;;;;;;;5107186;28;20016;-48
2023/12/24 05:21:00;;;;;;;13.43;7.63;;;;;;;;;;5107008;28;20024;-47
2023/12/24 05:23:26;;;;;;;10.23;6.65;;;;;;;;;;5107347;28;20023;-45
2023/12/24 05:25:53;;;;;;;12.75;7.10;;;;;;;;;;5106703;28;20221;-52
2023/12/24 05:28:19;;;;;;;12.18;6.30;;;;;;;;;;5107142;28;20023;-45
2023/12/24 05:30:46;;;;;;;9.63;6.00;;;;;;;;;;5106634;28;20040;-45
2023/12/24 05:33:13;;;;;;;9.75;5.30;;;;;;;;;;5107041;28;20079;-44
2023/12/24 05:35:40;;;;;;;9.93;5.72;;;;;;;;;;5106469;28;20091;-50
2023/12/24 05:38:07;;;;;;;9.35;4.72;;;;;;;;;;5106735;28;20019;-52
2023/12/24 05:40:33;;;;;;;9.02;5.80;;;;;;;;;;5106481;28;20020;-46
2023/12/24 05:43:00;;;;;;;8.70;5.63;;;;;;;;;;5106806;28;20016;-50
2023/12/24 05:45:27;;;;;;;9.65;5.47;;;;;;;;;;5106283;28;20087;-44
2023/12/24 05:47:53;;;;;;;10.07;5.38;;;;;;;;;;5106695;28;20208;-45
2023/12/24 05:50:20;;;;;;;8.38;5.43;;;;;;;;;;5106447;28;20020;-45
2023/12/24 05:52:46;;;;;;;7.90;4.88;;;;;;;;;;5106326;28;20024;-45
2023/12/24 05:55:13;;;;;;;10.85;5.30;;;;;;;;;;5106288;28;20023;-44
2023/12/24 05:57:40;;;;;;;8.88;4.93;;;;;;;;;;5106342;28;20024;-46
2023/12/24 06:00:07;;;;;;;8.98;5.75;;;;;;;;;;5106238;28;20020;-50
2023/12/24 06:02:33;;;;;;;8.00;5.20;;;;;;;;;;5106235;28;20024;-45
2023/12/24 06:05:00;;;;;;;9.38;5.32;;;;;;;;;;5106155;28;20040;-45
2023/12/24 06:07:27;;;;;;;7.88;4.78;;;;;;;;;;5105961;28;20212;-49
2023/12/24 06:09:53;;;;;;;10.02;4.55;;;;;;;;;;5106102;28;20032;-45
2023/12/24 06:12:20;;;;;;;8.95;4.65;;;;;;;;;;5106136;28;20039;-51
2023/12/24 06:14:46;;;;;;;7.00;4.30;;;;;;;;;;5105700;28;20024;-53
2023/12/24 06:17:13;;;;;;;10.93;5.20;;;;;;;;;;5105929;28;20088;-51
2023/12/24 06:19:40;;;;;;;9.30;4.45;;;;;;;;;;5105837;28;20029;-44
2023/12/24 06:22:07;;;;;;;9.00;4.32;;;;;;;;;;5105866;28;20020;-48
2023/12/24 06:24:34;;;;;;;11.30;4.75;;;;;;;;;;5105665;28;20039;-48
2023/12/24 06:27:00;;;;;;;6.40;4.22;;;;;;;;;;5105544;28;20023;-46
2023/12/24 06:29:27;;;;;;;8.48;4.18;;;;;;;;;;5105429;28;20115;-43
2023/12/24 06:31:56;;;;;;;9.07;4.68;;;;;;;;;;5105370;28;20425;-44
2023/12/24 06:34:23;;;;;;;8.05;4.30;;;;;;;;;;5105380;28;20035;-45
2023/12/24 06:36:50;;;;;;;9.02;4.70;;;;;;;;;;5105502;28;20031;-45
2023/12/24 06:39:16;;;;;;;10.95;4.88;;;;;;;;;;5105663;28;20292;-53
2023/12/24 06:41:45;;;;;;;8.40;4.38;;;;;;;;;;5105441;28;20259;-58
2023/12/24 06:44:12;;;;;;;9.82;4.10;;;;;;;;;;5105258;28;20091;-50
2023/12/24 06:46:39;;;;;;;7.78;4.60;;;;;;;;;;5105544;28;20031;-53
2023/12/24 06:49:05;;;;;;;9.77;4.57;;;;;;;;;;5105690;28;20031;-45
2023/12/24 06:51:32;;;;;;;7.95;4.28;;;;;;;;;;5105204;28;20039;-51
2023/12/24 06:53:58;;;;;;;6.70;4.13;;;;;;;;;;5105422;28;20031;-50
2023/12/24 06:56:25;;;;;;;54.35;6.57;;;;;;;;;;5104977;28;20015;-45
2023/12/24 06:58:52;;;;;;;10.23;4.95;;;;;;;;;;5104463;28;20069;-52
2023/12/24 07:01:18;;;;;;;11.13;4.50;;;;;;;;;;5103871;28;20020;-52
2023/12/24 07:03:45;;;;;;;7.07;3.90;;;;;;;;;;5095560;28;20032;-50
2023/12/24 07:06:11;;;;;;;7.70;4.35;;;;;;;;;;5103155;28;20026;-57
2023/12/24 07:08:39;;;;;;;10.50;4.22;;;;;;;;;;5102375;28;20038;-54
2023/12/24 07:11:05;;;;;;;25.17;14.20;;;;;;;;;;5103619;28;20065;-52
2023/12/24 07:13:32;;;;;;;12.63;5.18;;;;;;;;;;5104727;28;20095;-45
2023/12/24 07:15:59;;;;;;;11.10;5.40;;;;;;;;;;5103843;28;20020;-46
2023/12/24 07:18:26;;;;;;;12.07;5.45;;;;;;;;;;5103556;28;20035;-44
2023/12/24 07:20:53;;;;;;;10.75;5.00;;;;;;;;;;5103096;28;20133;-45
2023/12/24 07:23:19;;;;;;;11.82;5.15;;;;;;;;;;5104612;28;20020;-43
2023/12/24 07:25:46;;;;;;;9.93;5.57;;;;;;;;;;5104477;28;20020;-42
2023/12/24 07:28:12;;;;;;;9.45;5.30;;;;;;;;;;5104722;28;20091;-46
2023/12/24 07:30:39;;;;;;;9.57;5.40;;;;;;;;;;5104239;28;20039;-43
2023/12/24 07:33:06;;;;;;;10.43;5.00;;;;;;;;;;5104800;28;20056;-44
2023/12/24 07:35:33;;;;;;;12.48;5.78;;;;;;;;;;5104303;28;20020;-45
2023/12/24 07:37:59;;;;;;;10.45;5.05;;;;;;;;;;5104438;28;20020;-43
2023/12/24 07:40:26;;;;;;;12.85;5.35;;;;;;;;;;5104337;28;20061;-49
2023/12/24 07:42:52;;;;;;;7.93;4.50;;;;;;;;;;5104505;28;20028;-49
2023/12/24 07:45:19;;;;;;;8.38;4.30;;;;;;;;;;5097691;28;20043;-43
2023/12/24 07:47:46;;;;;;;10.75;3.95;;;;;;;;;;5100633;28;20319;-43
2023/12/24 07:50:12;;;;;;;9.48;4.28;;;;;;;;;;5104473;28;20031;-44
2023/12/24 07:52:39;;;;;;;6.60;4.30;;;;;;;;;;5104389;28;20032;-46
2023/12/24 07:55:05;;;;;;;8.95;4.50;;;;;;;;;;5104244;28;20095;-43
2023/12/24 07:57:32;;;;;;;6.28;3.65;;;;;;;;;;5104337;28;20031;-42
2023/12/24 07:59:59;;;;;;;10.70;4.32;;;;;;;;;;5104117;28;20033;-49
2023/12/24 08:02:25;;;;;;;7.40;4.03;;;;;;;;;;5104274;28;20050;-47
2023/12/24 08:04:54;;;;;;;7.55;3.85;;;;;;;;;;5104636;28;20026;-53
2023/12/24 08:07:21;;;;;;;9.30;4.00;;;;;;;;;;5104064;28;20031;-45
2023/12/24 08:09:48;;;;;;;10.68;4.28;;;;;;;;;;5103944;28;20453;-51
2023/12/24 08:12:15;;;;;;;8.25;3.65;;;;;;;;;;5097759;28;20028;-42
2023/12/24 08:14:42;;;;;;;8.73;3.35;;;;;;;;;;5099982;28;20058;-43
2023/12/24 08:17:08;;;;;;;9.43;3.58;;;;;;;;;;5103817;28;20028;-44
2023/12/24 08:19:35;;;;;;;7.60;3.60;;;;;;;;;;5103113;28;20080;-48
2023/12/24 08:22:02;;;;;;;8.20;3.90;;;;;;;;;;5102059;28;20016;-47
2023/12/24 08:24:29;;;;;;;11.05;3.95;;;;;;;;;;5101995;28;20083;-45
2023/12/24 08:26:55;;;;;;;6.32;3.30;;;;;;;;;;5101828;28;20016;-46
2023/12/24 08:29:22;;;;;;;5.88;3.72;;;;;;;;;;5102760;28;20051;-49
2023/12/24 08:31:48;;;;;;;6.80;3.80;;;;;;;;;;5098127;28;20077;-45
2023/12/24 08:34:15;;;;;;;10.00;4.13;;;;;;;;;;5087118;28;20024;-44
2023/12/24 08:36:42;;;;;;;7.93;4.10;;;;;;;;;;5091447;28;20019;-50
2023/12/24 08:39:09;;;;;;;7.80;3.97;;;;;;;;;;5107397;28;20024;-43
2023/12/24 08:41:35;;;;;;;7.43;4.03;;;;;;;;;;5107653;28;20020;-44
2023/12/24 08:44:02;;;;;;;7.65;4.10;;;;;;;;;;5106479;28;20095;-50
2023/12/24 08:46:28;;;;;;;10.20;4.60;;;;;;;;;;5087236;28;20025;-43
2023/12/24 08:48:55;;;;;;;9.35;4.30;;;;;;;;;;5087747;28;20032;-44
2023/12/24 08:51:21;;;;;;;11.38;4.03;;;;;;;;;;5087354;28;20051;-47
2023/12/24 08:53:48;;;;;;;7.07;4.35;;;;;;;;;;5087440;28;20031;-45
2023/12/24 08:56:14;;;;;;;8.95;4.68;;;;;;;;;;5087209;28;20027;-48
2023/12/24 08:58:41;;;;;;;6.30;4.13;;;;;;;;;;5087497;28;20083;-46
2023/12/24 09:01:08;;;;;;;7.05;4.40;;;;;;;;;;5086981;28;20016;-50
2023/12/24 09:03:35;;;;;;;10.35;4.20;;;;;;;;;;5087257;28;20025;-44
2023/12/24 09:06:01;;;;;;;5.97;3.88;;;;;;;;;;5087018;28;20021;-47
2023/12/24 09:08:28;;;;;;;8.15;4.43;;;;;;;;;;5091977;28;20052;-44
2023/12/24 09:10:55;;;;;;;10.60;3.90;;;;;;;;;;5107070;28;20105;-44
2023/12/24 09:13:22;;;;;;;4.72;3.88;;;;;;;;;;5107410;28;20028;-49
2023/12/24 09:15:49;;;;;;;9.10;4.15;;;;;;;;;;5106946;28;20035;-48
2023/12/24 09:18:15;;;;;;;8.38;4.22;;;;;;;;;;5107395;28;20028;-44
2023/12/24 09:20:42;;;;;;;7.53;3.75;;;;;;;;;;5107213;28;20016;-47
2023/12/24 09:23:08;;;;;;;8.65;4.07;;;;;;;;;;5107109;28;20055;-51
2023/12/24 09:25:35;;;;;;;7.57;4.53;;;;;;;;;;5106847;28;20028;-46
2023/12/24 09:28:01;;;;;;;11.35;4.85;;;;;;;;;;5107111;28;20193;-47
2023/12/24 09:30:28;;;;;;;15.02;5.68;;;;;;;;;;5106690;28;20052;-45
2023/12/24 09:32:54;;;;;;;12.13;5.65;;;;;;;;;;5106983;28;20261;-46
2023/12/24 09:35:21;;;;;;;11.68;5.05;;;;;;;;;;5106778;28;20073;-47
2023/12/24 09:37:48;;;;;;;11.45;5.65;;;;;;;;;;5106906;28;20354;-48
2023/12/24 09:40:14;;;;;;;9.52;5.00;;;;;;;;;;5106740;28;20318;-44
2023/12/24 09:42:41;;;;;;;11.70;5.05;;;;;;;;;;5106484;28;20035;-49
2023/12/24 09:45:08;;;;;;;8.77;5.07;;;;;;;;;;5106557;28;20023;-45
2023/12/24 09:47:34;;;;;;;7.60;4.32;;;;;;;;;;5088677;28;20032;-50
2023/12/24 09:50:01;;;;;;;9.70;4.68;;;;;;;;;;5086336;28;20028;-45
2023/12/24 09:52:28;;;;;;;8.18;4.70;;;;;;;;;;5086251;28;20039;-47
2023/12/24 09:54:56;;;;;;;7.25;4.50;;;;;;;;;;5085911;28;20029;-47
2023/12/24 09:57:22;;;;;;;7.43;4.20;;;;;;;;;;5086085;28;20020;-47
2023/12/24 09:59:49;;;;;;;7.53;4.70;;;;;;;;;;5085976;28;20016;-44
2023/12/24 10:02:15;;;;;;;8.68;4.57;;;;;;;;;;5085858;28;20041;-45
2023/12/24 10:04:42;;;;;;;7.55;4.13;;;;;;;;;;5085890;28;20316;-48
2023/12/24 10:07:09;;;;;;;8.43;4.60;;;;;;;;;;5085855;28;20032;-45
2023/12/24 10:09:43;;;;;;;11.25;4.75;;;;;;;;;;5085636;28;20016;-45
2023/12/24 10:12:09;;;;;;;9.57;4.85;;;;;;;;;;5085659;28;20209;-46
2023/12/24 10:14:39;;;;;;;10.52;4.70;;;;;;;;;;5085549;28;20328;-44
2023/12/24 10:17:06;;;;;;;10.10;4.93;;;;;;;;;;5085478;28;20048;-48
2023/12/24 10:19:34;;;;;;;7.45;4.78;;;;;;;;;;5085487;28;20012;-54
2023/12/24 10:22:07;;;;;;;8.43;4.63;;;;;;;;;;5085789;28;20309;-46
2023/12/24 10:24:41;;;;;;;10.32;4.97;;;;;;;;;;5085386;28;20039;-52
2023/12/24 10:27:09;;;;;;;12.27;5.10;;;;;;;;;;5085341;28;20305;-46
2023/12/24 10:29:37;;;;;;;8.60;5.00;;;;;;;;;;5093522;28;20396;-45
2023/12/24 10:32:04;;;;;;;9.93;5.13;;;;;;;;;;5105816;28;20215;-45
2023/12/24 10:34:32;;;;;;;8.13;5.20;;;;;;;;;;5105430;28;20019;-47
2023/12/24 10:37:00;;;;;;;7.10;5.00;;;;;;;;;;5105647;28;20047;-49
2023/12/24 10:39:26;;;;;;;10.55;5.25;;;;;;;;;;5105436;28;20020;-46
2023/12/24 10:41:55;;;;;;;13.73;5.18;;;;;;;;;;5105357;28;20374;-54
2023/12/24 10:44:22;;;;;;;11.48;5.60;;;;;;;;;;5105277;28;20072;-49
2023/12/24 10:46:49;;;;;;;12.93;5.72;;;;;;;;;;5105295;28;20283;-51
2023/12/24 10:49:16;;;;;;;11.43;5.55;;;;;;;;;;5105285;28;20070;-48
2023/12/24 10:51:43;;;;;;;9.82;5.28;;;;;;;;;;5105040;28;20028;-50
2023/12/24 10:54:10;;;;;;;12.00;5.28;;;;;;;;;;5101589;28;20320;-49
2023/12/24 10:56:54;;;;;;;12.07;5.40;;;;;;;;;;5103477;28;20020;-46
2023/12/24 10:59:27;;;;;;;8.98;4.75;;;;;;;;;;5104464;28;20031;-50
2023/12/24 11:01:55;;;;;;;10.65;4.78;;;;;;;;;;5102612;28;20063;-45
2023/12/24 11:04:40;;;;;;;7.85;4.90;;;;;;;;;;5105127;28;20027;-49
2023/12/24 11:07:06;;;;;;;13.13;5.07;;;;;;;;;;5105056;28;20035;-47
2023/12/24 11:09:36;;;;;;;10.73;5.65;;;;;;;;;;5104760;28;20028;-46
2023/12/24 11:12:02;;;;;;;12.15;5.60;;;;;;;;;;5105085;28;20016;-45
2023/12/24 11:14:44;;;;;;;9.90;5.03;;;;;;;;;;5104679;28;20369;-53
2023/12/24 11:17:29;;;;;;;8.07;5.07;;;;;;;;;;5104843;28;20051;-52
2023/12/24 11:19:56;;;;;;;19.38;5.80;;;;;;;;;;5104715;28;20023;-54
2023/12/24 11:22:24;;;;;;;13.48;5.88;;;;;;;;;;5104580;28;20016;-48
2023/12/24 11:25:10;;;;;;;14.95;5.72;;;;;;;;;;5104741;28;20024;-45
2023/12/24 11:27:52;;;;;;;9.52;5.50;;;;;;;;;;5104491;28;20290;-60
2023/12/24 11:30:19;;;;;;;10.55;5.72;;;;;;;;;;5104437;28;20058;-50
2023/12/24 11:32:45;;;;;;;12.57;5.40;;;;;;;;;;5104523;28;20117;-49
2023/12/24 11:35:32;;;;;;;14.25;5.57;;;;;;;;;;5104031;28;20020;-48
2023/12/24 11:37:59;;;;;;;12.02;4.88;;;;;;;;;;5095834;28;20032;-51
2023/12/24 11:40:25;;;;;;;9.40;4.80;;;;;;;;;;5104448;28;20061;-54
2023/12/24 11:42:52;;;;;;;8.10;4.75;;;;;;;;;;5104622;28;20255;-44
2023/12/24 11:45:19;;;;;;;8.25;4.65;;;;;;;;;;5104324;28;20024;-45
2023/12/24 11:47:45;;;;;;;12.43;5.07;;;;;;;;;;5093939;28;20051;-56
2023/12/24 11:50:12;;;;;;;10.93;4.80;;;;;;;;;;5104255;28;20030;-50
2023/12/24 11:52:46;;;;;;;9.25;5.15;;;;;;;;;;5104148;28;20062;-48
2023/12/24 11:55:16;;;;;;;9.45;4.65;;;;;;;;;;5104122;28;20027;-46
2023/12/24 11:57:43;;;;;;;12.25;4.57;;;;;;;;;;5104224;28;20020;-49
2023/12/24 12:00:26;;;;;;;7.47;4.82;;;;;;;;;;5103967;28;20083;-44
2023/12/24 12:02:56;;;;;;;8.80;4.93;;;;;;;;;;5104352;28;20174;-47
2023/12/24 12:05:23;;;;;;;7.45;4.20;;;;;;;;;;5103931;28;20050;-49
2023/12/24 12:07:50;;;;;;;10.95;5.53;;;;;;;;;;5104356;28;20065;-44
2023/12/24 12:10:17;;;;;;;9.68;5.30;;;;;;;;;;5104155;28;20034;-46
2023/12/24 12:12:44;;;;;;;7.70;4.82;;;;;;;;;;5104019;28;20024;-50
2023/12/24 12:15:11;;;;;;;9.05;4.78;;;;;;;;;;5103905;28;20036;-47
2023/12/24 12:17:38;;;;;;;9.02;5.38;;;;;;;;;;5104118;28;20046;-46
2023/12/24 12:20:05;;;;;;;8.43;5.30;;;;;;;;;;5103734;28;20065;-50
2023/12/24 12:22:32;;;;;;;8.80;4.95;;;;;;;;;;5103957;28;20024;-54
2023/12/24 12:24:59;;;;;;;10.73;5.43;;;;;;;;;;5103881;28;20035;-44
2023/12/24 12:27:25;;;;;;;9.82;5.50;;;;;;;;;;5103768;28;20300;-46
2023/12/24 12:29:52;;;;;;;8.02;4.90;;;;;;;;;;5103823;28;20063;-46
2023/12/24 12:32:19;;;;;;;10.18;4.85;;;;;;;;;;5104015;28;20394;-47
2023/12/24 12:34:45;;;;;;;9.10;4.95;;;;;;;;;;5103677;28;20024;-54
2023/12/24 12:37:12;;;;;;;13.50;4.85;;;;;;;;;;5103978;28;20024;-49
2023/12/24 12:39:38;;;;;;;8.10;4.70;;;;;;;;;;5103786;28;20026;-49
2023/12/24 12:42:05;;;;;;;9.27;4.53;;;;;;;;;;5103737;28;20036;-50
2023/12/24 12:44:32;;;;;;;9.48;5.30;;;;;;;;;;5103579;28;20393;-56
2023/12/24 12:46:58;;;;;;;8.07;5.10;;;;;;;;;;5103784;28;20224;-56
2023/12/24 12:49:25;;;;;;;9.95;5.00;;;;;;;;;;5104010;28;20023;-52
2023/12/24 12:51:51;;;;;;;8.63;4.95;;;;;;;;;;5103780;28;20016;-54
2023/12/24 12:54:21;;;;;;;9.10;4.75;;;;;;;;;;5103487;28;20011;-52
2023/12/24 12:56:52;;;;;;;9.00;5.20;;;;;;;;;;5103397;28;20016;-50
2023/12/24 12:59:27;;;;;;;9.13;4.97;;;;;;;;;;5103561;28;20017;-48
2023/12/24 13:02:00;;;;;;;10.23;5.32;;;;;;;;;;5103433;28;20054;-48
2023/12/24 13:04:34;;;;;;;8.52;5.28;;;;;;;;;;5103272;28;20020;-46
2023/12/24 13:07:08;;;;;;;12.43;4.80;;;;;;;;;;5103402;28;20020;-51
2023/12/24 13:09:45;;;;;;;9.50;5.55;;;;;;;;;;5103343;28;20080;-57
2023/12/24 13:12:12;;;;;;;8.30;5.55;;;;;;;;;;5103605;28;20024;-48
2023/12/24 13:14:50;;;;;;;10.50;5.45;;;;;;;;;;5103388;28;20020;-50
2023/12/24 13:17:22;;;;;;;10.10;6.45;;;;;;;;;;5103376;28;20186;-45
2023/12/24 13:19:49;;;;;;;8.18;5.45;;;;;;;;;;5106452;28;20016;-48
2023/12/24 13:22:16;;;;;;;8.38;4.55;;;;;;;;;;5107075;28;20205;-45
2023/12/24 13:24:43;;;;;;;7.22;4.47;;;;;;;;;;5107042;28;20414;-53
2023/12/24 13:27:10;;;;;;;9.27;4.50;;;;;;;;;;5106944;28;20028;-45
2023/12/24 13:29:36;;;;;;;10.90;3.75;;;;;;;;;;5106562;28;20048;-48
2023/12/24 13:32:03;;;;;;;5.75;3.92;;;;;;;;;;5106823;28;20467;-47
2023/12/24 13:34:30;;;;;;;7.13;3.78;;;;;;;;;;5100291;28;20130;-45
2023/12/24 13:36:57;;;;;;;8.75;5.28;;;;;;;;;;5086290;28;20016;-46
2023/12/24 13:39:23;;;;;;;9.25;5.18;;;;;;;;;;5086549;28;20021;-43
2023/12/24 13:41:50;;;;;;;9.13;5.00;;;;;;;;;;5086324;28;20019;-47
2023/12/24 13:44:17;;;;;;;10.30;5.68;;;;;;;;;;5091169;28;20031;-55
2023/12/24 13:46:44;;;;;;;9.38;4.80;;;;;;;;;;5106270;28;20099;-53
2023/12/24 13:49:10;;;;;;;8.90;5.45;;;;;;;;;;5106425;28;20028;-47
2023/12/24 13:51:37;;;;;;;10.98;5.40;;;;;;;;;;5106531;28;20046;-53
2023/12/24 13:54:04;;;;;;;7.75;4.47;;;;;;;;;;5106871;28;20032;-50
2023/12/24 13:56:33;;;;;;;10.07;4.45;;;;;;;;;;5106334;28;20316;-44
2023/12/24 13:58:59;;;;;;;10.50;5.00;;;;;;;;;;5106650;28;20032;-51
2023/12/24 14:01:27;;;;;;;12.25;3.90;;;;;;;;;;5106294;28;20023;-54
2023/12/24 14:03:54;;;;;;;9.77;4.43;;;;;;;;;;5106646;28;20077;-46
2023/12/24 14:06:20;;;;;;;7.45;4.22;;;;;;;;;;5106404;28;20054;-53
2023/12/24 14:08:47;;;;;;;9.18;4.38;;;;;;;;;;5106532;28;20024;-48
2023/12/24 14:11:13;;;;;;;9.68;3.90;;;;;;;;;;5106109;28;20019;-54
2023/12/24 14:13:41;;;;;;;6.82;4.20;;;;;;;;;;5106225;28;20028;-48
2023/12/24 14:16:08;;;;;;;8.02;3.92;;;;;;;;;;5106120;28;20020;-52
2023/12/24 14:18:35;;;;;;;7.28;4.38;;;;;;;;;;5106270;28;20031;-56
2023/12/24 14:21:01;;;;;;;9.02;5.75;;;;;;;;;;5105818;28;20073;-55
2023/12/24 14:23:28;;;;;;;9.00;4.95;;;;;;;;;;5106252;28;20085;-54
2023/12/24 14:25:55;;;;;;;8.13;4.40;;;;;;;;;;5106028;28;20047;-58
2023/12/24 14:28:22;;;;;;;9.10;4.20;;;;;;;;;;5105983;28;20027;-56
2023/12/24 14:30:50;;;;;;;8.07;4.40;;;;;;;;;;5104808;28;20077;-45
2023/12/24 14:33:18;;;;;;;8.15;3.80;;;;;;;;;;5105904;28;20028;-50
2023/12/24 14:35:44;;;;;;;5.70;3.40;;;;;;;;;;5105362;28;20216;-53